Time;durP1;ratioP1;P1;durP2;ratioP2;P2;SDS_P1;SDS_P2;PMS_P1;PMS_P2;Temp;Humidity;BMP_temperature;BMP_pressure;BME280_temperature;BME280_humidity;BME280_pressure;Samples;Min_cycle;Max_cycle;Signal;HPM_P1;HPM_P2
2022/10/06 00:00:54;;;;;;;4.50;1.27;;;;;;;;;;5051904;28;20273;-82
2022/10/06 00:03:23;;;;;;;10.67;2.03;;;;;;;;;;5032889;28;20214;-82
2022/10/06 00:05:51;;;;;;;4.00;1.70;;;;;;;;;;5034898;28;20228;-82
2022/10/06 00:08:20;;;;;;;5.17;2.00;;;;;;;;;;5048287;28;20232;-82
2022/10/06 00:10:49;;;;;;;3.90;1.40;;;;;;;;;;5035142;28;20320;-82
2022/10/06 00:13:18;;;;;;;10.50;1.87;;;;;;;;;;5022059;28;20223;-82
2022/10/06 00:15:46;;;;;;;4.03;1.70;;;;;;;;;;5048886;28;20262;-82
2022/10/06 00:18:14;;;;;;;1.97;1.60;;;;;;;;;;5054461;28;20290;-82
2022/10/06 00:20:43;;;;;;;6.43;2.03;;;;;;;;;;5054728;28;20234;-82
2022/10/06 00:23:11;;;;;;;7.17;1.90;;;;;;;;;;5054259;28;20258;-82
2022/10/06 00:25:40;;;;;;;5.47;1.57;;;;;;;;;;5052243;28;20218;-82
2022/10/06 00:28:10;;;;;;;4.47;1.53;;;;;;;;;;5043590;28;20219;-82
2022/10/06 00:30:38;;;;;;;8.50;1.37;;;;;;;;;;5054411;28;20211;-82
2022/10/06 00:33:07;;;;;;;3.57;1.63;;;;;;;;;;5054992;28;20278;-82
2022/10/06 00:35:35;;;;;;;6.60;1.67;;;;;;;;;;5053502;28;20256;-82
2022/10/06 00:38:04;;;;;;;6.17;1.67;;;;;;;;;;5053667;28;20299;-82
2022/10/06 00:40:33;;;;;;;10.33;2.83;;;;;;;;;;5045226;28;20197;-82
2022/10/06 00:43:02;;;;;;;5.63;2.60;;;;;;;;;;5039593;28;20239;-82
2022/10/06 00:45:33;;;;;;;3.40;1.70;;;;;;;;;;5040686;28;20290;-82
2022/10/06 00:48:03;;;;;;;2.63;1.27;;;;;;;;;;5070254;28;20199;-82
2022/10/06 00:50:32;;;;;;;5.17;1.60;;;;;;;;;;5046393;28;20307;-82
2022/10/06 00:53:00;;;;;;;6.03;2.60;;;;;;;;;;5048539;28;20257;-82
2022/10/06 00:55:29;;;;;;;5.20;1.43;;;;;;;;;;5041597;28;20237;-82
2022/10/06 00:57:59;;;;;;;4.33;1.57;;;;;;;;;;5040693;28;20245;-82
2022/10/06 01:00:27;;;;;;;6.13;1.50;;;;;;;;;;5045790;28;20234;-82
2022/10/06 01:02:59;;;;;;;7.13;2.33;;;;;;;;;;5035427;28;20216;-82
2022/10/06 01:05:30;;;;;;;3.13;1.37;;;;;;;;;;5053829;28;20203;-82
2022/10/06 01:07:59;;;;;;;3.30;1.43;;;;;;;;;;5038185;28;20199;-82
2022/10/06 01:10:27;;;;;;;7.70;2.63;;;;;;;;;;5035698;28;20238;-82
2022/10/06 01:12:56;;;;;;;3.30;1.57;;;;;;;;;;5060044;28;20235;-82
2022/10/06 01:15:25;;;;;;;5.17;2.00;;;;;;;;;;5030604;28;20212;-82
2022/10/06 01:17:55;;;;;;;11.47;1.90;;;;;;;;;;5024317;28;20250;-82
2022/10/06 01:20:25;;;;;;;1.30;1.20;;;;;;;;;;5054554;28;20226;-82
2022/10/06 01:22:57;;;;;;;3.10;1.20;;;;;;;;;;5039911;28;20229;-82
2022/10/06 01:25:25;;;;;;;2.87;1.50;;;;;;;;;;5053028;28;20230;-82
2022/10/06 01:27:54;;;;;;;5.77;1.90;;;;;;;;;;5038620;28;20205;-82
2022/10/06 01:30:24;;;;;;;10.87;2.97;;;;;;;;;;5033698;28;20211;-82
2022/10/06 01:32:53;;;;;;;0.67;0.67;;;;;;;;;;5038689;28;20197;-82
2022/10/06 01:35:21;;;;;;;3.07;1.33;;;;;;;;;;5033952;28;20231;-82
2022/10/06 01:37:50;;;;;;;1.93;1.00;;;;;;;;;;5033746;28;20204;-82
2022/10/06 01:40:20;;;;;;;4.67;1.53;;;;;;;;;;5054173;28;20229;-82
2022/10/06 01:42:48;;;;;;;7.57;2.70;;;;;;;;;;5068079;28;20198;-82
2022/10/06 01:45:16;;;;;;;5.47;1.90;;;;;;;;;;5037762;28;20227;-82
2022/10/06 01:47:45;;;;;;;1.90;1.37;;;;;;;;;;5034540;28;20230;-82
2022/10/06 01:50:13;;;;;;;8.20;1.83;;;;;;;;;;5052785;28;20246;-82
2022/10/06 01:52:41;;;;;;;1.07;0.73;;;;;;;;;;5052903;28;20194;-82
2022/10/06 01:55:10;;;;;;;5.97;2.20;;;;;;;;;;5052398;28;20226;-82
2022/10/06 01:57:42;;;;;;;8.50;2.63;;;;;;;;;;5053366;28;20225;-82
2022/10/06 02:00:11;;;;;;;2.57;1.83;;;;;;;;;;5052547;28;20248;-83
2022/10/06 02:02:40;;;;;;;6.20;1.67;;;;;;;;;;5038199;28;20219;-82
2022/10/06 02:05:08;;;;;;;5.40;1.70;;;;;;;;;;5047547;28;20228;-82
2022/10/06 02:07:37;;;;;;;5.30;1.47;;;;;;;;;;5069506;28;20199;-82
2022/10/06 02:10:06;;;;;;;8.67;1.97;;;;;;;;;;5068592;28;20203;-82
2022/10/06 02:12:35;;;;;;;7.43;2.43;;;;;;;;;;5052519;28;20200;-82
2022/10/06 02:15:05;;;;;;;3.53;1.47;;;;;;;;;;5048636;28;20203;-82
2022/10/06 02:17:33;;;;;;;3.67;1.63;;;;;;;;;;5042962;28;20298;-82
2022/10/06 02:20:02;;;;;;;12.37;2.73;;;;;;;;;;5051540;28;20205;-82
2022/10/06 02:22:30;;;;;;;4.17;1.50;;;;;;;;;;5042418;28;20203;-82
2022/10/06 02:24:58;;;;;;;10.17;2.77;;;;;;;;;;5041609;28;20253;-82
2022/10/06 02:27:27;;;;;;;3.03;2.07;;;;;;;;;;5051287;28;20225;-82
2022/10/06 02:29:55;;;;;;;8.17;3.27;;;;;;;;;;5026286;28;20226;-81
2022/10/06 02:32:25;;;;;;;1.33;1.13;;;;;;;;;;5053537;28;20393;-82
2022/10/06 02:34:54;;;;;;;1.70;1.30;;;;;;;;;;5051703;28;20262;-82
2022/10/06 02:37:23;;;;;;;3.00;1.33;;;;;;;;;;5039651;28;20234;-82
2022/10/06 02:39:51;;;;;;;13.73;2.77;;;;;;;;;;5051622;28;20249;-82
2022/10/06 02:42:19;;;;;;;2.87;1.13;;;;;;;;;;5068546;28;20234;-82
2022/10/06 02:44:48;;;;;;;4.37;1.80;;;;;;;;;;5039677;28;20289;-82
2022/10/06 02:47:16;;;;;;;2.33;2.17;;;;;;;;;;5068055;28;20200;-82
2022/10/06 02:49:46;;;;;;;2.03;1.50;;;;;;;;;;5045598;28;20222;-82
2022/10/06 02:52:14;;;;;;;3.77;1.27;;;;;;;;;;5046242;28;20222;-82
2022/10/06 02:54:44;;;;;;;1.37;1.23;;;;;;;;;;5045044;28;20209;-83
2022/10/06 02:57:14;;;;;;;7.60;1.80;;;;;;;;;;5045772;28;20230;-82
2022/10/06 02:59:42;;;;;;;5.10;1.80;;;;;;;;;;5041675;28;20229;-82
2022/10/06 03:02:11;;;;;;;1.27;1.17;;;;;;;;;;5068539;28;20229;-82
2022/10/06 03:04:39;;;;;;;5.07;1.60;;;;;;;;;;5051405;28;20194;-82
2022/10/06 03:07:09;;;;;;;5.40;1.77;;;;;;;;;;5048459;28;20199;-82
2022/10/06 03:09:37;;;;;;;5.27;1.43;;;;;;;;;;5032514;28;20233;-82
2022/10/06 03:12:06;;;;;;;2.90;1.30;;;;;;;;;;5037106;28;20274;-82
2022/10/06 03:14:34;;;;;;;5.60;2.33;;;;;;;;;;5040242;28;20290;-82
2022/10/06 03:17:03;;;;;;;3.80;1.30;;;;;;;;;;5032057;28;20215;-82
2022/10/06 03:19:31;;;;;;;6.27;1.63;;;;;;;;;;5032896;28;20211;-82
2022/10/06 03:21:59;;;;;;;9.37;2.30;;;;;;;;;;5027140;28;20195;-82
2022/10/06 03:24:29;;;;;;;6.47;1.90;;;;;;;;;;5038590;28;20294;-82
2022/10/06 03:26:58;;;;;;;4.27;1.47;;;;;;;;;;5025491;28;20204;-82
2022/10/06 03:29:27;;;;;;;5.87;1.50;;;;;;;;;;5039123;28;20192;-82
2022/10/06 03:31:56;;;;;;;6.40;2.00;;;;;;;;;;5068136;28;20284;-82
2022/10/06 03:34:24;;;;;;;5.20;1.63;;;;;;;;;;5066733;28;20261;-82
2022/10/06 03:36:53;;;;;;;6.37;2.10;;;;;;;;;;5040379;28;20226;-82
2022/10/06 03:39:21;;;;;;;3.73;1.43;;;;;;;;;;5040951;28;20234;-82
2022/10/06 03:41:54;;;;;;;4.70;1.90;;;;;;;;;;5071878;28;20222;-82
2022/10/06 03:44:22;;;;;;;6.57;1.90;;;;;;;;;;5058475;28;20257;-82
2022/10/06 03:46:50;;;;;;;4.53;1.83;;;;;;;;;;5054791;28;20221;-82
2022/10/06 03:49:19;;;;;;;3.87;1.27;;;;;;;;;;5067687;28;20203;-82
2022/10/06 03:51:47;;;;;;;5.37;1.53;;;;;;;;;;5047678;28;20248;-82
2022/10/06 03:54:16;;;;;;;6.97;2.00;;;;;;;;;;5051274;28;20231;-82
2022/10/06 03:56:44;;;;;;;5.13;1.37;;;;;;;;;;5035903;28;20195;-82
2022/10/06 03:59:16;;;;;;;7.00;1.73;;;;;;;;;;5036254;28;20231;-82
2022/10/06 04:01:45;;;;;;;4.30;2.47;;;;;;;;;;5048338;28;20218;-82
2022/10/06 04:04:14;;;;;;;2.13;1.33;;;;;;;;;;5041401;28;20211;-82
2022/10/06 04:06:43;;;;;;;4.53;1.57;;;;;;;;;;5053626;28;20226;-82
2022/10/06 04:09:13;;;;;;;4.20;1.63;;;;;;;;;;5056967;28;20271;-82
2022/10/06 04:11:43;;;;;;;2.53;1.33;;;;;;;;;;5031658;28;20223;-82
2022/10/06 04:14:14;;;;;;;3.23;1.30;;;;;;;;;;5035351;28;20192;-82
2022/10/06 04:16:44;;;;;;;4.97;1.60;;;;;;;;;;5034956;28;20230;-82
2022/10/06 04:19:13;;;;;;;10.57;2.17;;;;;;;;;;5035221;28;20203;-82
2022/10/06 04:21:43;;;;;;;3.60;1.47;;;;;;;;;;5038203;28;20236;-82
2022/10/06 04:24:11;;;;;;;3.60;2.40;;;;;;;;;;5054624;28;20240;-82
2022/10/06 04:26:41;;;;;;;4.70;0.93;;;;;;;;;;5070961;28;20266;-82
2022/10/06 04:29:09;;;;;;;9.77;1.73;;;;;;;;;;5054325;28;20233;-82
2022/10/06 04:31:39;;;;;;;9.10;6.43;;;;;;;;;;5053851;28;20241;-82
2022/10/06 04:34:09;;;;;;;1.33;1.10;;;;;;;;;;5054257;28;20234;-82
2022/10/06 04:36:38;;;;;;;0.90;0.80;;;;;;;;;;5032592;28;20233;-82
2022/10/06 04:39:07;;;;;;;11.27;2.27;;;;;;;;;;5034937;28;20230;-82
2022/10/06 04:41:37;;;;;;;2.23;1.57;;;;;;;;;;5038788;28;20203;-82
2022/10/06 04:44:05;;;;;;;2.57;1.33;;;;;;;;;;5036166;28;20203;-82
2022/10/06 04:46:34;;;;;;;4.90;1.37;;;;;;;;;;5062734;28;20204;-82
2022/10/06 04:49:13;;;;;;;1.50;1.17;;;;;;;;;;5037547;28;20198;-82
2022/10/06 04:51:48;;;;;;;4.13;1.03;;;;;;;;;;5047886;28;20236;-82
2022/10/06 04:54:17;;;;;;;4.73;1.73;;;;;;;;;;5029359;28;20210;-82
2022/10/06 04:56:45;;;;;;;3.70;1.93;;;;;;;;;;5043502;28;20205;-82
2022/10/06 04:59:14;;;;;;;5.83;2.33;;;;;;;;;;5047414;28;20214;-82
2022/10/06 05:01:42;;;;;;;3.13;2.17;;;;;;;;;;5046775;28;20272;-82
2022/10/06 05:04:10;;;;;;;3.97;1.37;;;;;;;;;;5057374;28;20202;-82
2022/10/06 05:06:41;;;;;;;4.33;1.23;;;;;;;;;;5053685;28;20226;-82
2022/10/06 05:09:10;;;;;;;4.27;1.80;;;;;;;;;;5023085;28;20293;-82
2022/10/06 05:11:39;;;;;;;6.67;2.53;;;;;;;;;;5035192;28;20293;-82
2022/10/06 05:14:07;;;;;;;6.00;2.30;;;;;;;;;;5054359;28;20256;-82
2022/10/06 05:16:37;;;;;;;4.73;1.60;;;;;;;;;;5068288;28;20201;-82
2022/10/06 05:19:06;;;;;;;5.27;2.67;;;;;;;;;;5043203;28;20258;-82
2022/10/06 05:21:36;;;;;;;3.40;1.37;;;;;;;;;;5053547;28;20209;-82
2022/10/06 05:24:05;;;;;;;0.97;0.97;;;;;;;;;;5053337;28;20199;-82
2022/10/06 05:26:35;;;;;;;5.40;1.70;;;;;;;;;;5068917;28;20202;-82
2022/10/06 05:29:03;;;;;;;2.63;1.43;;;;;;;;;;5048142;28;20196;-82
2022/10/06 05:31:33;;;;;;;4.00;1.33;;;;;;;;;;5045724;28;20290;-82
2022/10/06 05:34:02;;;;;;;3.40;1.57;;;;;;;;;;5046635;28;20206;-82
2022/10/06 05:36:32;;;;;;;5.50;1.93;;;;;;;;;;5063540;28;20206;-82
2022/10/06 05:39:01;;;;;;;4.83;1.33;;;;;;;;;;5033366;28;20290;-82
2022/10/06 05:41:31;;;;;;;8.20;2.17;;;;;;;;;;5053116;28;20222;-81
2022/10/06 05:43:59;;;;;;;1.40;0.50;;;;;;;;;;5039748;28;20199;-80
2022/10/06 05:46:28;;;;;;;3.10;1.33;;;;;;;;;;5040473;28;20210;-80
2022/10/06 05:48:57;;;;;;;4.23;2.10;;;;;;;;;;5036678;28;20203;-80
2022/10/06 05:51:27;;;;;;;0.80;0.80;;;;;;;;;;5031609;28;20223;-80
2022/10/06 05:53:58;;;;;;;1.10;0.93;;;;;;;;;;5039991;28;20233;-80
2022/10/06 05:56:27;;;;;;;2.33;1.33;;;;;;;;;;5042950;28;20202;-80
2022/10/06 05:58:58;;;;;;;4.03;1.20;;;;;;;;;;5036151;28;20202;-79
2022/10/06 06:01:27;;;;;;;1.97;1.27;;;;;;;;;;5058098;28;20227;-80
2022/10/06 06:03:58;;;;;;;3.87;1.73;;;;;;;;;;5046136;28;20199;-80
2022/10/06 06:06:27;;;;;;;23.17;1.93;;;;;;;;;;5034147;28;20227;-81
2022/10/06 06:08:56;;;;;;;15.97;1.20;;;;;;;;;;5032860;28;20219;-81
2022/10/06 06:11:26;;;;;;;10.30;2.07;;;;;;;;;;5049085;28;20195;-81
2022/10/06 06:13:57;;;;;;;1.63;1.13;;;;;;;;;;5021184;28;20216;-81
2022/10/06 06:16:26;;;;;;;3.67;1.87;;;;;;;;;;5033447;28;20235;-81
2022/10/06 06:18:54;;;;;;;2.47;1.17;;;;;;;;;;5051844;28;20206;-81
2022/10/06 06:21:23;;;;;;;17.70;1.70;;;;;;;;;;5041409;28;20211;-81
2022/10/06 06:23:54;;;;;;;7.13;1.63;;;;;;;;;;5052226;28;20232;-81
2022/10/06 06:26:23;;;;;;;1.50;1.10;;;;;;;;;;5068052;28;20190;-81
2022/10/06 06:28:52;;;;;;;3.70;1.47;;;;;;;;;;5058776;28;20204;-81
2022/10/06 06:31:25;;;;;;;4.33;1.37;;;;;;;;;;5036608;28;20288;-81
2022/10/06 06:33:54;;;;;;;8.30;1.13;;;;;;;;;;5041918;28;20249;-81
2022/10/06 06:36:24;;;;;;;2.63;1.33;;;;;;;;;;5033373;28;20246;-81
2022/10/06 06:38:53;;;;;;;2.93;1.73;;;;;;;;;;5060654;28;20204;-80
2022/10/06 06:41:23;;;;;;;3.27;1.47;;;;;;;;;;5038811;28;20205;-84
2022/10/06 06:43:55;;;;;;;0.87;0.83;;;;;;;;;;5039388;28;20201;-83
2022/10/06 06:46:26;;;;;;;3.60;1.67;;;;;;;;;;5025966;28;20290;-83
2022/10/06 06:48:57;;;;;;;1.30;1.20;;;;;;;;;;5049451;28;20204;-83
2022/10/06 06:51:26;;;;;;;2.77;1.17;;;;;;;;;;5022722;28;20197;-83
2022/10/06 06:53:54;;;;;;;1.10;0.73;;;;;;;;;;5046898;28;20218;-83
2022/10/06 06:56:23;;;;;;;3.47;1.70;;;;;;;;;;5042748;28;20222;-84
2022/10/06 06:58:51;;;;;;;3.77;1.60;;;;;;;;;;5035208;28;20209;-83
2022/10/06 07:01:20;;;;;;;1.13;1.03;;;;;;;;;;5042472;28;20277;-83
2022/10/06 07:03:54;;;;;;;3.20;0.77;;;;;;;;;;5049666;28;20187;-83
2022/10/06 07:06:26;;;;;;;2.10;1.23;;;;;;;;;;5044712;28;20226;-83
2022/10/06 07:08:56;;;;;;;1.80;1.37;;;;;;;;;;5061832;28;20204;-82
2022/10/06 07:11:26;;;;;;;5.80;1.10;;;;;;;;;;5044373;28;20207;-82
2022/10/06 07:13:56;;;;;;;11.83;2.37;;;;;;;;;;5043978;28;20207;-82
2022/10/06 07:27:34;;;;;;;1.80;1.17;;;;;;;;;;5048975;28;20203;-82
2022/10/06 07:30:02;;;;;;;9.57;2.40;;;;;;;;;;5050049;28;20184;-82
2022/10/06 07:32:31;;;;;;;0.80;0.80;;;;;;;;;;5048128;28;20306;-82
2022/10/06 07:35:03;;;;;;;1.60;1.30;;;;;;;;;;5055011;28;20235;-82
2022/10/06 07:37:33;;;;;;;1.87;1.63;;;;;;;;;;5041326;28;20220;-83
2022/10/06 07:40:02;;;;;;;0.90;0.83;;;;;;;;;;5056392;28;20286;-83
2022/10/06 07:42:46;;;;;;;3.97;1.50;;;;;;;;;;5040338;28;20200;-82
2022/10/06 07:48:01;;;;;;;4.67;2.00;;;;;;;;;;5028975;28;20216;-82
2022/10/06 07:50:31;;;;;;;4.03;1.40;;;;;;;;;;5041545;28;20263;-83
2022/10/06 07:53:03;;;;;;;3.40;1.90;;;;;;;;;;5042490;28;20220;-83
2022/10/06 07:55:32;;;;;;;1.60;1.23;;;;;;;;;;5053518;28;20209;-83
2022/10/06 07:58:03;;;;;;;2.40;0.90;;;;;;;;;;5071125;28;20229;-83
2022/10/06 08:00:34;;;;;;;1.20;1.17;;;;;;;;;;5043637;28;20224;-82
2022/10/06 08:03:03;;;;;;;1.67;1.00;;;;;;;;;;5047250;28;20200;-83
2022/10/06 08:05:33;;;;;;;1.47;1.37;;;;;;;;;;5048199;28;20233;-83
2022/10/06 08:08:01;;;;;;;2.93;0.80;;;;;;;;;;5046704;28;20289;-83
2022/10/06 08:10:29;;;;;;;0.80;0.80;;;;;;;;;;5051976;28;20246;-83
2022/10/06 08:13:00;;;;;;;4.37;1.20;;;;;;;;;;5031344;28;20197;-82
2022/10/06 08:15:28;;;;;;;1.13;1.03;;;;;;;;;;5049100;28;20198;-83
2022/10/06 08:17:59;;;;;;;1.00;1.00;;;;;;;;;;5047684;28;20209;-82
2022/10/06 08:20:29;;;;;;;1.40;1.30;;;;;;;;;;5046644;28;20211;-83
2022/10/06 08:22:59;;;;;;;4.83;1.93;;;;;;;;;;5036893;28;20201;-83
2022/10/06 08:25:27;;;;;;;0.80;0.80;;;;;;;;;;5033495;28;20256;-82
2022/10/06 08:27:56;;;;;;;3.67;1.13;;;;;;;;;;5036429;28;20197;-83
2022/10/06 08:30:25;;;;;;;4.63;2.10;;;;;;;;;;5062861;28;20258;-83
2022/10/06 08:32:54;;;;;;;1.03;0.80;;;;;;;;;;5048406;28;20199;-84
2022/10/06 08:35:24;;;;;;;2.67;1.37;;;;;;;;;;5045472;28;20237;-84
2022/10/06 08:37:55;;;;;;;3.57;1.67;;;;;;;;;;5041058;28;20262;-83
2022/10/06 08:40:26;;;;;;;0.83;0.80;;;;;;;;;;5071098;28;20274;-83
2022/10/06 08:42:57;;;;;;;3.33;1.40;;;;;;;;;;5036225;28;20220;-83
2022/10/06 08:45:30;;;;;;;5.00;1.43;;;;;;;;;;5046796;28;20200;-83
2022/10/06 08:48:12;;;;;;;2.27;0.87;;;;;;;;;;5039217;28;20300;-83
2022/10/06 08:50:48;;;;;;;1.53;1.27;;;;;;;;;;5035608;28;20212;-86
2022/10/06 08:53:21;;;;;;;3.90;1.27;;;;;;;;;;5034659;28;20299;-83
2022/10/06 08:55:54;;;;;;;3.20;1.00;;;;;;;;;;5038900;28;20195;-83
2022/10/06 08:58:29;;;;;;;6.63;1.37;;;;;;;;;;5069658;28;20231;-83
2022/10/06 09:01:13;;;;;;;3.33;2.40;;;;;;;;;;5021871;28;20220;-83
2022/10/06 09:03:47;;;;;;;2.83;1.60;;;;;;;;;;5047610;28;20203;-83
2022/10/06 09:06:20;;;;;;;2.00;0.80;;;;;;;;;;5044282;28;20213;-83
2022/10/06 09:08:52;;;;;;;2.20;1.03;;;;;;;;;;5056757;28;20192;-83
2022/10/06 09:11:28;;;;;;;2.10;1.37;;;;;;;;;;5069629;28;20227;-83
2022/10/06 09:13:59;;;;;;;2.83;1.53;;;;;;;;;;5027666;28;20224;-83
2022/10/06 09:16:29;;;;;;;2.33;1.93;;;;;;;;;;5055193;28;20220;-83
2022/10/06 09:19:02;;;;;;;3.80;1.17;;;;;;;;;;5033828;28;20240;-83
2022/10/06 09:21:39;;;;;;;5.20;1.27;;;;;;;;;;5046878;28;20210;-82
2022/10/06 09:24:11;;;;;;;3.20;1.10;;;;;;;;;;5044110;28;20241;-83
2022/10/06 09:26:44;;;;;;;3.70;2.10;;;;;;;;;;5054051;28;20193;-82
2022/10/06 09:29:13;;;;;;;1.40;0.87;;;;;;;;;;5057098;28;20246;-82
2022/10/06 09:31:42;;;;;;;2.77;1.40;;;;;;;;;;5046181;28;20205;-83
2022/10/06 09:34:16;;;;;;;2.47;1.30;;;;;;;;;;5020927;28;20229;-83
2022/10/06 09:36:58;;;;;;;7.23;1.03;;;;;;;;;;5028706;28;20192;-83
2022/10/06 09:39:32;;;;;;;2.10;1.57;;;;;;;;;;5036649;28;20201;-83
2022/10/06 09:42:07;;;;;;;7.77;1.27;;;;;;;;;;5043710;28;20207;-82
2022/10/06 09:44:49;;;;;;;1.20;0.83;;;;;;;;;;5053195;28;20280;-83
2022/10/06 09:47:32;;;;;;;4.20;1.27;;;;;;;;;;5055280;28;20230;-82
2022/10/06 09:50:03;;;;;;;7.77;2.17;;;;;;;;;;5042548;28;20193;-82
2022/10/06 09:52:39;;;;;;;2.23;1.10;;;;;;;;;;5052518;28;20201;-82
2022/10/06 09:55:17;;;;;;;2.10;1.23;;;;;;;;;;5034361;28;20238;-82
2022/10/06 09:58:03;;;;;;;2.57;1.00;;;;;;;;;;5023807;28;20211;-81
2022/10/06 10:00:37;;;;;;;8.17;1.57;;;;;;;;;;5026520;28;20280;-82
2022/10/06 10:03:07;;;;;;;7.37;1.50;;;;;;;;;;5015579;28;20291;-83
2022/10/06 10:05:38;;;;;;;1.80;1.20;;;;;;;;;;5036690;28;20210;-83
2022/10/06 10:08:09;;;;;;;4.63;1.17;;;;;;;;;;5019416;28;20265;-83
2022/10/06 10:10:38;;;;;;;3.33;1.30;;;;;;;;;;5021264;28;20294;-81
2022/10/06 10:13:20;;;;;;;8.57;1.07;;;;;;;;;;5043097;28;20207;-82
2022/10/06 10:15:52;;;;;;;2.43;1.27;;;;;;;;;;5017450;28;20346;-83
2022/10/06 10:18:25;;;;;;;4.27;1.50;;;;;;;;;;5017717;28;20218;-83
2022/10/06 10:20:57;;;;;;;11.50;1.63;;;;;;;;;;5018667;28;20296;-84
2022/10/06 10:23:28;;;;;;;1.53;1.03;;;;;;;;;;5014110;28;20210;-83
2022/10/06 10:26:08;;;;;;;8.43;1.57;;;;;;;;;;5019069;28;20191;-83
2022/10/06 10:29:17;;;;;;;3.27;1.80;;;;;;;;;;5033592;28;20208;-84
2022/10/06 10:31:54;;;;;;;1.37;1.00;;;;;;;;;;5002855;28;20207;-82
2022/10/06 10:34:43;;;;;;;3.10;1.40;;;;;;;;;;5038663;28;20244;-82
2022/10/06 10:37:15;;;;;;;2.10;1.33;;;;;;;;;;5017056;28;20207;-83
2022/10/06 10:39:51;;;;;;;2.10;0.80;;;;;;;;;;5033753;28;20206;-82
2022/10/06 10:42:29;;;;;;;0.90;0.90;;;;;;;;;;5022572;28;20199;-82
2022/10/06 10:45:15;;;;;;;5.83;1.63;;;;;;;;;;5016057;28;20207;-82
2022/10/06 10:47:46;;;;;;;4.73;2.13;;;;;;;;;;5019451;28;20206;-83
2022/10/06 10:50:41;;;;;;;3.30;1.07;;;;;;;;;;5021201;28;20199;-82
2022/10/06 10:53:32;;;;;;;5.50;1.83;;;;;;;;;;5032032;28;20264;-83
2022/10/06 10:56:11;;;;;;;4.60;2.33;;;;;;;;;;5020121;28;20233;-83
2022/10/06 10:58:42;;;;;;;4.60;1.10;;;;;;;;;;5015988;28;20192;-84
2022/10/06 11:01:24;;;;;;;6.03;1.53;;;;;;;;;;5013973;28;20233;-84
2022/10/06 11:07:39;;;;;;;8.73;2.23;;;;;;;;;;5017307;28;20194;-84
2022/10/06 11:10:13;;;;;;;3.53;1.40;;;;;;;;;;5021062;28;20229;-83
2022/10/06 11:12:58;;;;;;;3.20;1.50;;;;;;;;;;5021249;28;20205;-83
2022/10/06 11:15:42;;;;;;;2.00;0.97;;;;;;;;;;5021377;28;20226;-81
2022/10/06 11:18:25;;;;;;;22.37;2.00;;;;;;;;;;5019584;28;20214;-82
2022/10/06 11:20:56;;;;;;;1.87;1.70;;;;;;;;;;5017258;28;20201;-81
2022/10/06 11:23:40;;;;;;;5.27;1.73;;;;;;;;;;5034484;28;20205;-82
2022/10/06 11:26:29;;;;;;;4.93;1.70;;;;;;;;;;5024908;28;20195;-81
2022/10/06 11:29:02;;;;;;;4.07;1.17;;;;;;;;;;5016976;28;20211;-82
2022/10/06 11:31:35;;;;;;;3.47;2.10;;;;;;;;;;5017385;28;20241;-82
2022/10/06 11:34:05;;;;;;;4.10;1.67;;;;;;;;;;5033703;28;20457;-81
2022/10/06 11:36:38;;;;;;;1.93;1.70;;;;;;;;;;5024409;28;20215;-82
2022/10/06 11:39:08;;;;;;;4.07;1.73;;;;;;;;;;5013779;28;20210;-81
2022/10/06 11:41:48;;;;;;;3.47;1.10;;;;;;;;;;5034237;28;20225;-82
2022/10/06 11:44:32;;;;;;;5.47;1.33;;;;;;;;;;5023301;28;20213;-82
2022/10/06 11:47:07;;;;;;;8.33;1.93;;;;;;;;;;5013917;28;20277;-82
2022/10/06 11:49:52;;;;;;;0.70;0.63;;;;;;;;;;5037363;28;20209;-82
2022/10/06 11:52:44;;;;;;;2.70;1.07;;;;;;;;;;5022916;28;20201;-82
2022/10/06 11:55:22;;;;;;;4.07;1.37;;;;;;;;;;5019736;28;20236;-82
2022/10/06 11:58:12;;;;;;;2.60;2.40;;;;;;;;;;5025680;28;20219;-82
2022/10/06 12:01:02;;;;;;;1.93;1.20;;;;;;;;;;5022662;28;20225;-82
2022/10/06 12:03:55;;;;;;;5.93;1.60;;;;;;;;;;5027686;28;20203;-83
2022/10/06 12:06:46;;;;;;;5.37;1.17;;;;;;;;;;5047665;28;20213;-82
2022/10/06 12:10:12;;;;;;;1.63;0.93;;;;;;;;;;5023878;28;20220;-85
2022/10/06 12:12:52;;;;;;;3.93;1.30;;;;;;;;;;5041265;28;20208;-85
2022/10/06 12:16:06;;;;;;;3.47;2.93;;;;;;;;;;5045045;28;20240;-84
2022/10/06 12:19:14;;;;;;;6.33;1.60;;;;;;;;;;4949248;28;20280;-83
2022/10/06 12:22:00;;;;;;;4.17;1.30;;;;;;;;;;5051887;28;20202;-82
2022/10/06 12:24:35;;;;;;;5.57;1.40;;;;;;;;;;5029295;28;20333;-83
2022/10/06 12:27:16;;;;;;;5.97;1.43;;;;;;;;;;5028454;28;20205;-84
2022/10/06 12:30:31;;;;;;;2.90;2.33;;;;;;;;;;5027343;28;20217;-84
2022/10/06 12:33:16;;;;;;;2.87;1.37;;;;;;;;;;5016077;28;20216;-84
2022/10/06 12:35:47;;;;;;;6.97;1.30;;;;;;;;;;5035291;28;20260;-83
2022/10/06 12:38:30;;;;;;;6.03;1.90;;;;;;;;;;5019904;28;20218;-82
2022/10/06 12:41:00;;;;;;;5.73;1.83;;;;;;;;;;5020126;28;20265;-83
2022/10/06 12:43:44;;;;;;;4.90;1.30;;;;;;;;;;5021342;28;20222;-83
2022/10/06 12:46:15;;;;;;;3.93;1.33;;;;;;;;;;5021232;28;20203;-82
2022/10/06 12:48:50;;;;;;;3.77;2.10;;;;;;;;;;5034636;28;20205;-83
2022/10/06 12:51:26;;;;;;;1.90;1.30;;;;;;;;;;5023844;28;20203;-83
2022/10/06 12:53:59;;;;;;;2.63;0.80;;;;;;;;;;5028356;28;20210;-83
2022/10/06 12:56:30;;;;;;;3.33;1.60;;;;;;;;;;5045288;28;20253;-82
2022/10/06 12:58:59;;;;;;;7.03;1.33;;;;;;;;;;5024912;28;20195;-82
2022/10/06 13:01:27;;;;;;;4.30;1.67;;;;;;;;;;5043730;28;20226;-83
2022/10/06 13:03:58;;;;;;;4.13;1.43;;;;;;;;;;5028537;28;20300;-83
2022/10/06 13:06:34;;;;;;;5.17;1.30;;;;;;;;;;5035635;28;20267;-83
2022/10/06 13:09:06;;;;;;;3.00;1.13;;;;;;;;;;5021105;28;20203;-85
2022/10/06 13:15:20;;;;;;;5.57;1.40;;;;;;;;;;5013241;28;20232;-85
2022/10/06 13:17:51;;;;;;;5.23;1.93;;;;;;;;;;5023715;28;20196;-86
2022/10/06 13:20:22;;;;;;;5.30;1.03;;;;;;;;;;5041795;28;20244;-84
2022/10/06 13:22:59;;;;;;;3.53;0.77;;;;;;;;;;5044977;28;20203;-84
2022/10/06 13:25:44;;;;;;;2.20;1.43;;;;;;;;;;5024368;28;20213;-85
2022/10/06 13:28:22;;;;;;;7.00;1.63;;;;;;;;;;5023836;28;20294;-84
2022/10/06 13:30:52;;;;;;;2.27;1.67;;;;;;;;;;5041723;28;20203;-84
2022/10/06 13:33:21;;;;;;;5.43;1.13;;;;;;;;;;5038799;28;20203;-85
2022/10/06 13:35:57;;;;;;;4.43;0.93;;;;;;;;;;5038625;28;20338;-85
2022/10/06 13:38:30;;;;;;;11.90;3.47;;;;;;;;;;5044489;28;20203;-85
2022/10/06 13:41:16;;;;;;;2.53;1.07;;;;;;;;;;5031065;28;20206;-85
2022/10/06 13:43:49;;;;;;;2.53;1.37;;;;;;;;;;5021005;28;20236;-86
2022/10/06 13:46:22;;;;;;;2.00;0.63;;;;;;;;;;5023145;28;20204;-86
2022/10/06 13:48:53;;;;;;;2.50;1.30;;;;;;;;;;5020912;28;20254;-85
2022/10/06 13:51:28;;;;;;;4.23;1.43;;;;;;;;;;5037982;28;20209;-85
2022/10/06 13:53:59;;;;;;;2.23;0.97;;;;;;;;;;5036930;28;20199;-85
2022/10/06 13:56:38;;;;;;;5.07;1.67;;;;;;;;;;5024994;28;20437;-85
2022/10/06 13:59:26;;;;;;;1.63;1.53;;;;;;;;;;5028170;28;20228;-84
2022/10/06 14:01:55;;;;;;;0.87;0.67;;;;;;;;;;5027819;28;20314;-85
2022/10/06 14:04:23;;;;;;;3.47;1.80;;;;;;;;;;5037163;28;20215;-85
2022/10/06 14:06:53;;;;;;;7.83;2.43;;;;;;;;;;5028554;28;20199;-83
2022/10/06 14:09:30;;;;;;;4.60;1.17;;;;;;;;;;5022158;28;20321;-86
2022/10/06 14:12:06;;;;;;;1.57;0.87;;;;;;;;;;5028187;28;20295;-86
2022/10/06 14:14:35;;;;;;;3.00;1.10;;;;;;;;;;5023943;28;20209;-86
2022/10/06 14:17:04;;;;;;;11.40;1.43;;;;;;;;;;5023258;28;20226;-85
2022/10/06 14:19:39;;;;;;;2.53;1.43;;;;;;;;;;5020994;28;20207;-86
2022/10/06 14:22:26;;;;;;;2.13;1.40;;;;;;;;;;5043528;28;20211;-87
2022/10/06 14:24:59;;;;;;;0.93;0.93;;;;;;;;;;5025218;28;20201;-84
2022/10/06 14:27:28;;;;;;;2.47;1.23;;;;;;;;;;5039854;28;20203;-84
2022/10/06 14:29:57;;;;;;;3.47;1.97;;;;;;;;;;5021012;28;20215;-86
2022/10/06 14:32:27;;;;;;;1.67;1.23;;;;;;;;;;5025512;28;20200;-85
2022/10/06 14:34:56;;;;;;;1.67;1.13;;;;;;;;;;5029551;28;20225;-85
2022/10/06 14:37:25;;;;;;;2.53;1.03;;;;;;;;;;5030506;28;20218;-86
2022/10/06 14:39:54;;;;;;;4.37;1.60;;;;;;;;;;5054998;28;20213;-86
2022/10/06 14:42:33;;;;;;;4.27;1.17;;;;;;;;;;5026146;28;20210;-87
2022/10/06 14:45:02;;;;;;;4.57;2.27;;;;;;;;;;5029313;28;20209;-86
2022/10/06 14:47:33;;;;;;;5.07;1.67;;;;;;;;;;5034930;28;20191;-86
2022/10/06 14:50:02;;;;;;;1.70;1.20;;;;;;;;;;5022449;28;20222;-85
2022/10/06 14:52:33;;;;;;;1.80;1.47;;;;;;;;;;5038988;28;20203;-86
2022/10/06 14:55:10;;;;;;;0.40;0.40;;;;;;;;;;5031968;28;20214;-85
2022/10/06 14:57:41;;;;;;;2.07;1.07;;;;;;;;;;5042267;28;20267;-85
2022/10/06 15:00:10;;;;;;;2.13;1.33;;;;;;;;;;5042399;28;20214;-87
2022/10/06 15:08:08;;;;;;;14.43;1.80;;;;;;;;;;5033359;28;20202;-87
2022/10/06 15:08:21;;;;;;;4.73;2.07;;;;;;;;;;5019210;28;20314;-86
2022/10/06 15:10:53;;;;;;;12.30;1.37;;;;;;;;;;5020850;28;20211;-87
2022/10/06 15:13:23;;;;;;;7.50;1.50;;;;;;;;;;5024741;28;20202;-86
2022/10/06 15:15:57;;;;;;;2.50;1.67;;;;;;;;;;5027451;28;20208;-86
2022/10/06 15:18:26;;;;;;;4.40;1.80;;;;;;;;;;5021325;28;20217;-87
2022/10/06 15:20:55;;;;;;;1.37;1.07;;;;;;;;;;5034078;28;20226;-87
2022/10/06 15:23:26;;;;;;;4.77;0.93;;;;;;;;;;5024862;28;20207;-85
2022/10/06 15:29:03;;;;;;;0.87;0.87;;;;;;;;;;5039385;28;20222;-86
2022/10/06 15:31:32;;;;;;;4.83;2.20;;;;;;;;;;5023659;28;20214;-85
2022/10/06 15:34:02;;;;;;;9.50;2.27;;;;;;;;;;5023131;28;20220;-85
2022/10/06 15:36:32;;;;;;;3.93;1.53;;;;;;;;;;5045847;28;20198;-86
2022/10/06 15:39:04;;;;;;;10.07;3.33;;;;;;;;;;5021644;28;20273;-85
2022/10/06 15:41:34;;;;;;;2.43;0.93;;;;;;;;;;5030254;28;20208;-85